createdAt,value
2022-10-24T17:25:06.449Z,98617.3
2022-10-24T17:30:38.540Z,98630.8
2022-10-24T17:36:14.727Z,98638.5
2022-10-24T17:41:58.075Z,98648.2
2022-10-24T17:47:36.658Z,98652.4
2022-10-24T17:53:20.811Z,98657.2
2022-10-24T17:59:07.596Z,98667.2
2022-10-24T18:04:58.262Z,98678
2022-10-24T18:10:35.690Z,98688.3
2022-10-24T18:16:30.026Z,98699.3
2022-10-24T18:22:16.572Z,98691
2022-10-24T18:27:56.659Z,98698
2022-10-24T18:33:31.602Z,98703.6
2022-10-24T18:39:11.423Z,98713.3
2022-10-24T18:44:51.816Z,98724.6
2022-10-24T18:50:27.282Z,98736.9
2022-10-24T18:56:04.366Z,98745.8
2022-10-24T19:03:03.854Z,98744.7
2022-10-24T19:08:47.231Z,98748.7
2022-10-24T19:14:30.919Z,98754.5
2022-10-24T19:20:17.176Z,98751.3
2022-10-24T19:26:08.552Z,98745.5
2022-10-24T19:31:43.674Z,98743
2022-10-24T19:37:26.764Z,98746.5
2022-10-24T19:43:01.814Z,98748.2
2022-10-24T19:48:42.924Z,98751.1
2022-10-24T19:54:27.656Z,98760.9
2022-10-24T20:00:06.145Z,98754.5
2022-10-24T20:05:41.076Z,98750.7
2022-10-24T20:11:20.333Z,98755.2
2022-10-24T20:16:56.735Z,98756.2
2022-10-24T20:22:49.875Z,98756.6
2022-10-24T20:28:43.201Z,98755.7
2022-10-24T20:34:18.552Z,98748
2022-10-24T20:39:53.378Z,98747.9
2022-10-24T20:45:37.102Z,98746.7
2022-10-24T20:51:11.949Z,98738.4
2022-10-24T20:56:48.749Z,98738.5
2022-10-24T21:02:24.694Z,98741.8
2022-10-24T21:08:01.428Z,98744.1
2022-10-24T21:13:36.324Z,98743.5
2022-10-24T21:19:12.180Z,98756.2
2022-10-24T21:25:17.040Z,98761.9
2022-10-24T21:31:00.264Z,98761.1
2022-10-24T21:36:39.138Z,98753.2
2022-10-24T21:42:14.698Z,98754
2022-10-24T21:47:50.089Z,98755
2022-10-24T21:53:31.818Z,98758.2
2022-10-24T21:59:10.831Z,98757
2022-10-24T22:05:22.149Z,98759.1
2022-10-24T22:10:57.005Z,98751.1
2022-10-24T22:16:37.237Z,98748.8
2022-10-24T22:22:19.899Z,98746.5
2022-10-24T22:27:58.839Z,98746.6
2022-10-24T22:33:41.698Z,98741
2022-10-24T22:39:16.788Z,98736.4
2022-10-24T22:44:57.445Z,98724.7
2022-10-24T22:50:44.829Z,98716.4
2022-10-24T22:56:29.697Z,98715.1
2022-10-24T23:02:09.529Z,98716.7
2022-10-24T23:07:54.309Z,98711.7
2022-10-24T23:13:29.491Z,98717
2022-10-24T23:19:04.309Z,98710.5
2022-10-24T23:25:04.968Z,98716
2022-10-24T23:31:01.363Z,98713.3
2022-10-24T23:36:46.392Z,98703.6
2022-10-24T23:42:32.373Z,98717.2
2022-10-24T23:48:08.236Z,98712
2022-10-24T23:53:51.119Z,98708.7
2022-10-24T23:59:26.151Z,98709.9
